X  Cerrar Datos meteorológicos de aviación METAR     LEZL Sevilla Airport
Temperatura
28°C Temperatura
9°C Punto de rocío
30% Humedad



Viento
10 KM/H
6 MPH
3 M/S
5 NUDO



120°
ESE
Condiciones actuales

Despejado Despejado
Presión 1023.03 (hPa) - 30.21 (inHg)
Visibilidad 6 (milla) - 9.7 (km)
Aeropuerto
Código de aeropuerto LEZL

localidad: Sevilla Airport
Distancia: 41 (km)

Metar:
LEZL 131600Z 12005KT 060V160 CAVOK 28/09 Q1023 NOSIG

Hora: 13-04-2024 18:00 CEST